createdAt,value
2022-10-11T00:00:39.434Z,26.15
2022-10-11T00:03:07.113Z,22.25
2022-10-11T00:05:35.741Z,20.95
2022-10-11T00:08:05.612Z,32.42
2022-10-11T00:10:35.373Z,29.20
2022-10-11T00:13:03.179Z,23.08
2022-10-11T00:15:31.199Z,20.83
2022-10-11T00:18:02.118Z,20.75
2022-10-11T00:20:34.165Z,22.17
2022-10-11T00:23:01.348Z,26.48
2022-10-11T00:25:34.011Z,21.55
2022-10-11T00:28:03.589Z,19.70
2022-10-11T00:30:31.575Z,25.58
2022-10-11T00:32:58.840Z,27.20
2022-10-11T00:35:26.748Z,22.52
2022-10-11T00:37:56.945Z,23.17
2022-10-11T00:40:26.518Z,28.25
2022-10-11T00:42:53.656Z,29.00
2022-10-11T00:45:26.851Z,23.38
2022-10-11T00:47:55.402Z,26.58
2022-10-11T00:50:28.110Z,22.10
2022-10-11T00:53:01.757Z,23.98
2022-10-11T00:55:33.735Z,27.08
2022-10-11T00:58:01.082Z,27.42
2022-10-11T01:00:28.257Z,24.40
2022-10-11T01:02:55.773Z,23.58
2022-10-11T01:05:29.708Z,19.92
2022-10-11T01:08:02.282Z,23.52
2022-10-11T01:10:29.884Z,23.63
2022-10-11T01:13:40.757Z,22.15
2022-10-11T01:16:35.463Z,21.50
2022-10-11T01:19:33.422Z,23.10
2022-10-11T01:22:33.850Z,24.85
2022-10-11T01:25:31.002Z,26.23
2022-10-11T01:28:23.020Z,24.40
2022-10-11T01:30:51.685Z,27.52
2022-10-11T01:33:22.888Z,24.15
2022-10-11T01:36:27.946Z,24.08
2022-10-11T01:39:36.813Z,23.98
2022-10-11T01:42:09.930Z,24.20
2022-10-11T01:44:39.160Z,32.40
2022-10-11T01:47:08.645Z,22.75
2022-10-11T01:49:35.913Z,21.10
2022-10-11T01:52:06.998Z,24.08
2022-10-11T01:55:10.642Z,26.48
2022-10-11T01:58:04.350Z,22.90
2022-10-11T02:00:51.850Z,16.40
2022-10-11T02:03:24.629Z,22.77
2022-10-11T02:06:04.419Z,18.77
2022-10-11T02:08:53.074Z,23.00
2022-10-11T02:11:44.445Z,23.75
2022-10-11T02:14:27.323Z,20.90
2022-10-11T02:17:12.198Z,19.10
2022-10-11T02:19:46.059Z,19.80
2022-10-11T02:22:27.984Z,17.98
2022-10-11T02:25:02.180Z,19.98
2022-10-11T02:27:33.506Z,21.75
2022-10-11T02:30:04.477Z,23.35
2022-10-11T02:32:33.642Z,18.15
2022-10-11T02:35:02.623Z,17.30
2022-10-11T02:37:54.006Z,22.10
2022-10-11T02:40:35.313Z,15.32
2022-10-11T02:43:28.555Z,22.10
2022-10-11T02:46:03.396Z,14.63
2022-10-11T02:48:32.374Z,18.45
2022-10-11T02:51:02.428Z,17.08
2022-10-11T02:53:30.023Z,14.73
2022-10-11T02:55:57.512Z,18.58
2022-10-11T02:58:25.553Z,14.65
2022-10-11T03:00:52.809Z,20.02
2022-10-11T03:03:20.150Z,26.98
2022-10-11T03:05:47.323Z,16.67
2022-10-11T03:08:16.414Z,21.13
2022-10-11T03:10:44.185Z,16.08
2022-10-11T03:13:15.975Z,17.25
2022-10-11T03:16:01.925Z,16.83
2022-10-11T03:18:35.283Z,18.10
2022-10-11T03:23:29.400Z,16.40
2022-10-11T03:25:56.742Z,18.42
2022-10-11T03:28:26.050Z,23.42
2022-10-11T03:30:53.497Z,19.95
2022-10-11T03:33:20.639Z,15.65
2022-10-11T03:35:51.080Z,15.98
2022-10-11T03:38:22.606Z,21.75
2022-10-11T03:40:51.928Z,15.15
2022-10-11T03:43:19.214Z,15.80
2022-10-11T03:45:46.725Z,14.52
2022-10-11T03:48:13.905Z,20.25
2022-10-11T03:50:43.789Z,14.13
2022-10-11T03:53:13.423Z,16.02
2022-10-11T03:55:41.464Z,19.95
2022-10-11T03:58:09.309Z,14.20
2022-10-11T04:00:37.536Z,13.63
2022-10-11T04:03:04.813Z,15.75
2022-10-11T04:05:32.272Z,11.10
2022-10-11T04:07:59.662Z,13.55
2022-10-11T04:10:26.867Z,15.68
2022-10-11T04:12:56.518Z,18.10
2022-10-11T04:15:23.814Z,14.68
2022-10-11T04:17:50.908Z,12.98
2022-10-11T04:20:18.064Z,14.68
2022-10-11T04:22:45.176Z,10.02
2022-10-11T04:25:12.240Z,17.05
2022-10-11T04:27:39.666Z,15.73
2022-10-11T04:30:08.094Z,11.90
2022-10-11T04:32:37.630Z,14.85
2022-10-11T04:35:05.509Z,13.95
2022-10-11T04:37:35.921Z,16.25
2022-10-11T04:40:04.324Z,12.20
2022-10-11T04:42:31.472Z,14.23
2022-10-11T04:45:01.132Z,14.23
2022-10-11T04:47:28.283Z,13.93
2022-10-11T04:49:57.757Z,16.55
2022-10-11T04:52:26.033Z,17.05
2022-10-11T04:54:53.360Z,16.70
2022-10-11T04:57:21.971Z,16.25
2022-10-11T04:59:50.319Z,13.20
2022-10-11T05:02:17.968Z,11.60
2022-10-11T05:04:45.235Z,12.75
2022-10-11T05:07:12.452Z,14.35
2022-10-11T05:09:39.546Z,15.32
2022-10-11T05:12:06.801Z,15.10
2022-10-11T05:14:34.416Z,14.45
2022-10-11T05:17:01.500Z,16.92
2022-10-11T05:19:28.793Z,16.85
2022-10-11T05:21:56.072Z,15.60
2022-10-11T05:24:23.917Z,12.02
2022-10-11T05:26:51.583Z,12.40
2022-10-11T05:29:18.712Z,11.38
2022-10-11T05:31:46.081Z,15.48
2022-10-11T05:34:13.124Z,17.23
2022-10-11T05:36:40.249Z,14.90
2022-10-11T05:39:07.383Z,14.55
2022-10-11T05:41:34.489Z,15.77
2022-10-11T05:44:01.576Z,17.10
2022-10-11T05:46:28.896Z,11.85
2022-10-11T05:48:58.233Z,11.18
2022-10-11T05:51:25.330Z,17.90
2022-10-11T05:53:52.778Z,15.40
2022-10-11T05:56:26.602Z,14.70
2022-10-11T05:58:57.510Z,17.38
2022-10-11T06:01:28.220Z,12.98
2022-10-11T06:03:57.831Z,17.08
2022-10-11T06:06:24.998Z,21.88
2022-10-11T06:08:52.345Z,14.77
2022-10-11T06:11:29.112Z,17.58
2022-10-11T06:13:58.286Z,14.85
2022-10-11T06:16:25.989Z,15.30
2022-10-11T06:18:55.221Z,20.95
2022-10-11T06:21:23.338Z,14.63
2022-10-11T06:24:01.920Z,14.73
2022-10-11T06:26:30.108Z,11.68
2022-10-11T06:28:57.605Z,17.08
2022-10-11T06:31:25.075Z,10.90
2022-10-11T06:33:52.297Z,12.40
2022-10-11T06:36:19.731Z,8.98
2022-10-11T06:38:46.978Z,11.75
2022-10-11T06:41:21.068Z,8.05
2022-10-11T06:43:49.864Z,11.40
2022-10-11T06:46:19.600Z,9.00
2022-10-11T06:48:48.468Z,9.60
2022-10-11T06:51:19.966Z,9.80
2022-10-11T06:53:58.311Z,10.23
2022-10-11T06:56:31.096Z,12.25
2022-10-11T06:58:59.741Z,15.25
2022-10-11T07:01:27.636Z,21.25
2022-10-11T07:03:57.698Z,13.30
2022-10-11T07:06:28.326Z,9.57
2022-10-11T07:08:55.781Z,12.65
2022-10-11T07:11:27.350Z,10.57
2022-10-11T07:13:58.157Z,8.75
2022-10-11T07:16:26.325Z,9.35
2022-10-11T07:19:00.482Z,13.68
2022-10-11T07:21:30.324Z,10.52
2022-10-11T07:23:57.717Z,11.80
2022-10-11T07:26:27.524Z,14.75
2022-10-11T07:28:54.760Z,10.85
2022-10-11T07:31:25.518Z,7.65
2022-10-11T07:33:52.877Z,7.57
2022-10-11T07:36:23.307Z,7.38
2022-10-11T07:38:50.723Z,9.23
2022-10-11T07:41:18.237Z,9.00
2022-10-11T07:43:47.819Z,7.50
2022-10-11T07:46:16.108Z,11.40
2022-10-11T07:48:43.216Z,10.30
2022-10-11T07:51:15.781Z,8.82
2022-10-11T07:53:55.755Z,8.82
2022-10-11T07:56:28.682Z,17.45
2022-10-11T07:59:01.667Z,10.98
2022-10-11T08:01:31.994Z,10.05
2022-10-11T08:03:59.861Z,11.63
2022-10-11T08:06:33.654Z,11.35
2022-10-11T08:09:01.757Z,9.65
2022-10-11T08:11:36.430Z,10.07
2022-10-11T08:14:08.693Z,11.63
2022-10-11T08:16:38.998Z,12.40
2022-10-11T08:19:07.432Z,13.70
2022-10-11T08:21:34.921Z,15.20
2022-10-11T08:24:06.999Z,11.85
2022-10-11T08:26:37.472Z,11.55
2022-10-11T08:29:05.341Z,10.43
2022-10-11T08:31:34.590Z,7.45
2022-10-11T08:34:01.704Z,16.98
2022-10-11T08:36:28.744Z,8.85
2022-10-11T08:38:55.815Z,12.55
2022-10-11T08:41:49.950Z,13.02
2022-10-11T08:47:33.366Z,8.98
2022-10-11T08:50:01.182Z,8.55
2022-10-11T08:52:46.813Z,14.65
2022-10-11T08:55:15.386Z,9.38
2022-10-11T08:57:53.263Z,9.95
2022-10-11T09:00:21.726Z,12.60
2022-10-11T09:03:09.355Z,10.85
2022-10-11T09:06:01.040Z,11.07
2022-10-11T09:08:44.431Z,15.45
2022-10-11T09:11:39.773Z,7.95
2022-10-11T09:14:43.669Z,13.60
2022-10-11T09:17:46.814Z,11.02
2022-10-11T09:20:52.401Z,20.98
2022-10-11T09:23:43.470Z,8.45
2022-10-11T09:26:31.909Z,7.95
2022-10-11T09:29:18.164Z,13.88
2022-10-11T09:31:55.011Z,11.85
2022-10-11T09:34:26.868Z,9.75
2022-10-11T09:40:08.464Z,8.15
2022-10-11T09:42:38.067Z,10.52
2022-10-11T09:45:21.479Z,9.07
2022-10-11T09:47:54.859Z,8.82
2022-10-11T09:50:30.674Z,9.32
2022-10-11T09:53:04.891Z,12.45
2022-10-11T09:55:45.251Z,11.23
2022-10-11T09:58:35.489Z,10.25
2022-10-11T10:01:10.146Z,10.82
2022-10-11T10:03:42.988Z,9.27
2022-10-11T10:06:33.638Z,11.60
2022-10-11T10:09:30.522Z,12.90
2022-10-11T10:11:58.126Z,10.35
2022-10-11T10:14:30.031Z,10.18
2022-10-11T10:17:08.706Z,7.78
2022-10-11T10:20:05.516Z,17.50
2022-10-11T10:22:35.763Z,8.63
2022-10-11T10:25:08.146Z,9.85
2022-10-11T10:27:35.701Z,12.70
2022-10-11T10:30:15.951Z,15.52
2022-10-11T10:33:05.880Z,6.63
2022-10-11T10:35:49.328Z,9.63
2022-10-11T10:38:41.359Z,8.68
2022-10-11T10:43:43.752Z,6.00
2022-10-11T10:46:39.660Z,8.02
2022-10-11T10:49:53.056Z,8.82
2022-10-11T10:52:49.463Z,9.48
2022-10-11T10:55:42.271Z,8.95
2022-10-11T10:58:27.245Z,10.63
2022-10-11T11:01:48.875Z,12.15
2022-10-11T11:04:33.557Z,9.73
2022-10-11T11:07:36.666Z,9.68
2022-10-11T11:10:48.426Z,11.32
2022-10-11T11:13:22.701Z,6.00
2022-10-11T11:15:50.416Z,9.85
2022-10-11T11:18:30.352Z,6.57
2022-10-11T11:21:26.812Z,8.70
2022-10-11T11:24:29.755Z,9.80
2022-10-11T11:27:02.878Z,7.88
2022-10-11T11:29:53.148Z,9.93
2022-10-11T11:33:02.442Z,11.13
2022-10-11T11:35:44.050Z,11.95
2022-10-11T11:38:37.516Z,14.38
2022-10-11T11:41:11.591Z,11.85
2022-10-11T11:43:46.118Z,8.02
2022-10-11T11:46:27.709Z,8.63
2022-10-11T11:49:02.895Z,8.90
2022-10-11T11:51:41.553Z,9.57
2022-10-11T11:54:37.233Z,6.85
2022-10-11T11:57:41.572Z,11.18
2022-10-11T12:00:23.498Z,9.18
2022-10-11T12:05:37.609Z,11.52
2022-10-11T12:08:25.448Z,15.77
2022-10-11T12:11:02.453Z,8.25
2022-10-11T12:13:37.645Z,7.72
2022-10-11T12:16:04.668Z,4.97
2022-10-11T12:18:38.146Z,7.03
2022-10-11T12:21:44.386Z,8.10
2022-10-11T12:24:15.389Z,6.97
2022-10-11T12:26:45.506Z,10.73
2022-10-11T12:29:18.964Z,12.85
2022-10-11T12:32:00.225Z,12.57
2022-10-11T12:34:44.964Z,12.93
2022-10-11T12:37:18.128Z,10.68
2022-10-11T12:40:00.459Z,5.03
2022-10-11T12:42:36.574Z,11.88
2022-10-11T12:45:13.212Z,10.77
2022-10-11T12:48:00.979Z,5.70
2022-10-11T12:51:26.321Z,6.70
2022-10-11T12:55:14.114Z,11.73
2022-10-11T12:58:25.011Z,8.98
2022-10-11T13:00:52.043Z,14.20
2022-10-11T13:03:50.905Z,9.57
2022-10-11T13:06:38.811Z,13.55
2022-10-11T13:09:48.774Z,9.63
2022-10-11T13:12:25.333Z,8.18
2022-10-11T13:15:08.516Z,11.45
2022-10-11T13:17:39.044Z,9.57
2022-10-11T13:20:30.539Z,11.35
2022-10-11T13:22:58.605Z,7.70
2022-10-11T13:25:37.988Z,21.90
2022-10-11T13:28:09.785Z,8.07
2022-10-11T13:30:42.394Z,8.98
2022-10-11T13:33:21.411Z,8.10
2022-10-11T13:35:49.461Z,11.32
2022-10-11T13:38:43.160Z,6.85
2022-10-11T13:41:10.773Z,8.40
2022-10-11T13:43:38.721Z,8.45
2022-10-11T13:46:07.175Z,7.57
2022-10-11T13:48:41.065Z,11.63
2022-10-11T13:51:38.364Z,9.93
2022-10-11T13:54:13.534Z,15.57
2022-10-11T13:56:49.808Z,11.27
2022-10-11T13:59:23.986Z,6.47
2022-10-11T14:02:04.487Z,10.98
2022-10-11T14:04:40.909Z,12.20
2022-10-11T14:07:35.751Z,12.25
2022-10-11T14:10:05.634Z,9.48
2022-10-11T14:12:39.733Z,15.52
2022-10-11T14:15:23.737Z,10.23
2022-10-11T14:17:51.548Z,9.63
2022-10-11T14:20:33.738Z,11.30
2022-10-11T14:25:33.353Z,8.23
2022-10-11T14:28:00.723Z,17.20
2022-10-11T14:30:28.589Z,8.60
2022-10-11T14:32:59.641Z,16.50
2022-10-11T14:35:34.482Z,5.47
2022-10-11T14:38:01.608Z,9.23
2022-10-11T14:40:31.871Z,13.48
2022-10-11T14:42:59.035Z,11.43
2022-10-11T14:45:26.286Z,14.38
2022-10-11T14:47:53.581Z,12.48
2022-10-11T14:50:51.860Z,12.05
2022-10-11T14:53:19.238Z,12.93
2022-10-11T14:55:48.441Z,6.85
2022-10-11T14:58:17.386Z,10.55
2022-10-11T15:00:45.691Z,7.63
2022-10-11T15:03:14.878Z,9.25
2022-10-11T15:05:44.218Z,11.23
2022-10-11T15:08:14.892Z,14.57
2022-10-11T15:10:42.220Z,11.00
2022-10-11T15:13:11.812Z,7.88
2022-10-11T15:15:41.426Z,7.38
2022-10-11T15:18:13.455Z,12.85
2022-10-11T15:20:46.056Z,9.70
2022-10-11T15:23:13.925Z,13.07
2022-10-11T15:25:42.638Z,13.43
2022-10-11T15:28:30.117Z,7.85
2022-10-11T15:30:57.758Z,10.15
2022-10-11T15:33:28.320Z,21.92
2022-10-11T15:35:55.562Z,10.75
2022-10-11T15:38:25.896Z,15.88
2022-10-11T15:40:54.077Z,13.57
2022-10-11T15:43:24.776Z,8.00
2022-10-11T15:45:52.681Z,9.65
2022-10-11T15:48:22.756Z,14.82
2022-10-11T15:50:50.978Z,10.93
2022-10-11T15:53:23.336Z,10.02
2022-10-11T15:55:55.738Z,12.85
2022-10-11T15:58:27.860Z,12.90
2022-10-11T16:03:29.614Z,11.85
2022-10-11T16:06:04.933Z,12.88
2022-10-11T16:08:36.110Z,14.73
2022-10-11T16:11:05.114Z,12.45
2022-10-11T16:13:33.027Z,11.57
2022-10-11T16:16:11.288Z,17.35
2022-10-11T16:18:40.204Z,18.52
2022-10-11T16:21:10.647Z,22.15
2022-10-11T16:23:38.599Z,17.52
2022-10-11T16:26:10.174Z,20.58
2022-10-11T16:28:40.177Z,19.83
2022-10-11T16:31:18.326Z,18.40
2022-10-11T16:33:46.238Z,21.88
2022-10-11T16:36:36.624Z,18.38
2022-10-11T16:39:15.758Z,18.58
2022-10-11T16:41:46.278Z,23.02
2022-10-11T16:44:25.259Z,35.78
2022-10-11T16:46:52.670Z,29.90
2022-10-11T16:49:24.222Z,30.17
2022-10-11T16:51:59.006Z,27.38
2022-10-11T16:54:30.599Z,24.20
2022-10-11T16:56:59.598Z,27.08
2022-10-11T16:59:27.170Z,29.90
2022-10-11T17:01:55.160Z,28.45
2022-10-11T17:04:22.416Z,29.23
2022-10-11T17:06:49.859Z,33.88
2022-10-11T17:09:19.454Z,34.45
2022-10-11T17:11:46.588Z,36.50
2022-10-11T17:14:14.239Z,31.55
2022-10-11T17:16:41.450Z,30.50
2022-10-11T17:19:15.064Z,36.90
2022-10-11T17:21:44.730Z,31.70
2022-10-11T17:24:11.870Z,42.67
2022-10-11T17:26:39.293Z,47.88
2022-10-11T17:29:06.411Z,40.50
2022-10-11T17:31:33.538Z,40.95
2022-10-11T17:34:01.430Z,43.65
2022-10-11T17:36:36.265Z,37.13
2022-10-11T17:39:08.798Z,38.53
2022-10-11T17:41:36.663Z,39.42
2022-10-11T17:44:06.638Z,49.33
2022-10-11T17:46:34.247Z,34.72
2022-10-11T17:49:07.650Z,36.17
2022-10-11T17:51:36.952Z,45.17
2022-10-11T17:54:06.165Z,48.53
2022-10-11T17:56:37.657Z,48.90
2022-10-11T17:59:05.692Z,43.05
2022-10-11T18:01:32.884Z,46.20
2022-10-11T18:04:04.664Z,43.05
2022-10-11T18:06:38.515Z,47.45
2022-10-11T18:09:05.878Z,48.42
2022-10-11T18:11:33.574Z,44.47
2022-10-11T18:14:00.999Z,44.55
2022-10-11T18:16:30.536Z,45.53
2022-10-11T18:18:58.988Z,57.90
2022-10-11T18:21:34.352Z,49.63
2022-10-11T18:24:11.003Z,51.97
2022-10-11T18:26:38.585Z,46.85
2022-10-11T18:29:11.005Z,57.92
2022-10-11T18:31:41.295Z,61.67
2022-10-11T18:34:10.942Z,59.22
2022-10-11T18:36:39.088Z,58.33
2022-10-11T18:39:09.273Z,52.20
2022-10-11T18:41:39.414Z,53.70
2022-10-11T18:44:09.156Z,58.78
2022-10-11T18:46:38.672Z,52.63
2022-10-11T18:49:08.718Z,60.95
2022-10-11T18:51:39.444Z,58.42
2022-10-11T18:54:09.107Z,57.70
2022-10-11T18:56:37.188Z,53.92
2022-10-11T18:59:05.436Z,60.58
2022-10-11T19:01:39.634Z,49.15
2022-10-11T19:04:09.434Z,54.60
2022-10-11T19:06:43.406Z,57.03
2022-10-11T19:09:17.783Z,57.83
2022-10-11T19:11:49.524Z,65.22
2022-10-11T19:14:25.742Z,58.78
2022-10-11T19:16:53.926Z,53.65
2022-10-11T19:19:26.175Z,65.28
2022-10-11T19:24:24.320Z,60.40
2022-10-11T19:26:53.168Z,63.83
2022-10-11T19:29:24.179Z,63.25
2022-10-11T19:31:54.888Z,66.30
2022-10-11T19:34:28.710Z,67.40
2022-10-11T19:36:56.890Z,58.97
2022-10-11T19:39:25.609Z,61.75
2022-10-11T19:41:52.994Z,70.53
2022-10-11T19:44:20.483Z,68.55
2022-10-11T19:46:52.438Z,64.28
2022-10-11T19:49:25.045Z,68.72
2022-10-11T19:51:53.987Z,69.30
2022-10-11T19:54:21.179Z,65.38
2022-10-11T19:56:48.824Z,64.57
2022-10-11T19:59:16.814Z,63.53
2022-10-11T20:01:49.410Z,69.50
2022-10-11T20:04:47.135Z,70.85
2022-10-11T20:07:06.871Z,72.15
2022-10-11T20:09:34.055Z,64.65
2022-10-11T20:12:03.548Z,67.57
2022-10-11T20:14:30.671Z,63.30
2022-10-11T20:16:57.897Z,67.13
2022-10-11T20:19:31.120Z,68.88
2022-10-11T20:22:00.193Z,69.15
2022-10-11T20:24:32.450Z,70.45
2022-10-11T20:27:04.688Z,68.93
2022-10-11T20:29:31.905Z,48.88
2022-10-11T20:31:59.120Z,66.85
2022-10-11T20:34:27.696Z,62.40
2022-10-11T20:36:54.933Z,73.15
2022-10-11T20:39:22.109Z,62.03
2022-10-11T20:41:49.195Z,67.30
2022-10-11T20:44:18.698Z,60.97
2022-10-11T20:46:48.365Z,73.70
2022-10-11T20:49:15.739Z,72.95
2022-10-11T20:51:42.923Z,68.70
2022-10-11T20:54:11.301Z,62.83
2022-10-11T20:56:39.270Z,70.10
2022-10-11T20:59:07.010Z,64.78
2022-10-11T21:04:23.390Z,69.45
2022-10-11T21:06:50.531Z,71.38
2022-10-11T21:09:17.979Z,70.00
2022-10-11T21:11:46.016Z,74.25
2022-10-11T21:14:13.253Z,71.85
2022-10-11T21:16:40.431Z,71.93
2022-10-11T21:19:07.659Z,72.80
2022-10-11T21:21:35.051Z,78.72
2022-10-11T21:24:05.593Z,87.20
2022-10-11T21:26:32.963Z,69.75
2022-10-11T21:29:00.191Z,64.82
2022-10-11T21:31:34.250Z,69.50
2022-10-11T21:34:05.144Z,71.85
2022-10-11T21:36:32.311Z,74.78
2022-10-11T21:38:59.484Z,76.72
2022-10-11T21:41:30.149Z,76.10
2022-10-11T21:43:58.165Z,73.28
2022-10-11T21:46:54.239Z,73.05
2022-10-11T21:49:17.648Z,76.05
2022-10-11T21:51:45.521Z,68.93
2022-10-11T21:54:12.726Z,75.20
2022-10-11T21:56:39.966Z,61.67
2022-10-11T21:59:11.089Z,57.78
2022-10-11T22:01:40.437Z,56.70
2022-10-11T22:04:08.081Z,55.22
2022-10-11T22:06:36.180Z,56.08
2022-10-11T22:09:04.558Z,53.55
2022-10-11T22:11:32.226Z,54.13
2022-10-11T22:13:59.406Z,68.03
2022-10-11T22:16:28.949Z,56.28
2022-10-11T22:18:56.176Z,57.33
2022-10-11T22:21:24.032Z,62.70
2022-10-11T22:23:53.657Z,66.93
2022-10-11T22:26:25.748Z,68.20
2022-10-11T22:28:53.560Z,54.35
2022-10-11T22:31:21.516Z,40.90
2022-10-11T22:33:52.754Z,47.45
2022-10-11T22:36:20.005Z,48.53
2022-10-11T22:38:47.562Z,49.55
2022-10-11T22:41:14.684Z,50.78
2022-10-11T22:43:41.879Z,52.92
2022-10-11T22:46:09.862Z,50.08
2022-10-11T22:48:37.424Z,52.78
2022-10-11T22:51:06.919Z,48.15
2022-10-11T22:53:34.634Z,53.30
2022-10-11T22:56:04.257Z,53.45
2022-10-11T22:58:31.508Z,51.65
2022-10-11T23:01:05.621Z,49.55
2022-10-11T23:03:32.857Z,50.47
2022-10-11T23:06:00.135Z,51.70
2022-10-11T23:08:27.330Z,51.10
2022-10-11T23:10:54.469Z,53.50
2022-10-11T23:13:21.706Z,47.03
2022-10-11T23:15:48.813Z,47.95
2022-10-11T23:18:16.970Z,45.88
2022-10-11T23:20:44.740Z,38.83
2022-10-11T23:23:11.878Z,41.40
2022-10-11T23:25:39.689Z,39.63
2022-10-11T23:28:06.798Z,50.22
2022-10-11T23:30:35.303Z,38.90
2022-10-11T23:33:03.494Z,39.05
2022-10-11T23:35:30.674Z,38.28
2022-10-11T23:37:57.721Z,38.63
2022-10-11T23:40:24.876Z,37.65
2022-10-11T23:42:51.960Z,40.47
2022-10-11T23:45:19.089Z,40.80
2022-10-11T23:47:46.147Z,41.85
2022-10-11T23:50:13.266Z,35.08
2022-10-11T23:52:42.749Z,35.83
2022-10-11T23:55:09.976Z,43.58
2022-10-11T23:57:37.535Z,36.70
